createdAt,value
2022-09-29T00:00:38.985Z,98228.88
2022-09-29T00:06:02.471Z,98228.30
2022-09-29T00:11:10.926Z,98224.23
2022-09-29T00:16:14.504Z,98221.34
2022-09-29T00:21:20.030Z,98222.88
2022-09-29T00:26:25.449Z,98223.15
2022-09-29T00:31:30.127Z,98222.24
2022-09-29T00:36:33.601Z,98226.90
2022-09-29T00:41:39.091Z,98230.80
2022-09-29T00:47:03.264Z,98227.20
2022-09-29T00:52:31.965Z,98225.52
2022-09-29T00:57:45.107Z,98222.44
2022-09-29T01:02:56.306Z,98226.64
2022-09-29T01:08:09.034Z,98227.19
2022-09-29T01:13:12.960Z,98231.89
2022-09-29T01:18:16.577Z,98225.39
2022-09-29T01:23:57.675Z,98221.42
2022-09-29T01:29:22.797Z,98219.30
2022-09-29T01:34:53.243Z,98223.00
2022-09-29T01:40:17.124Z,98227.65
2022-09-29T01:45:34.587Z,98230.73
2022-09-29T01:50:50.895Z,98236.30
2022-09-29T01:56:00.556Z,98236.59
2022-09-29T02:01:10.609Z,98239.60
2022-09-29T02:06:22.434Z,98237.85
2022-09-29T02:11:27.793Z,98241.39
2022-09-29T02:16:37.431Z,98246.28
2022-09-29T02:21:41.071Z,98250.98
2022-09-29T02:26:45.464Z,98252.37
2022-09-29T02:31:49.904Z,98255.95
2022-09-29T02:37:14.557Z,98256.85
2022-09-29T02:42:17.770Z,98261.65
2022-09-29T02:47:48.105Z,98269.54
2022-09-29T02:53:29.818Z,98274.23
2022-09-29T02:58:48.349Z,98280.52
2022-09-29T03:03:51.942Z,98286.84
2022-09-29T03:08:55.930Z,98290.37
2022-09-29T03:13:59.651Z,98295.23
2022-09-29T03:19:05.588Z,98299.13
2022-09-29T03:24:08.933Z,98305.71
2022-09-29T03:29:12.252Z,98308.61
2022-09-29T03:34:15.554Z,98312.64
2022-09-29T03:39:18.929Z,98309.51
2022-09-29T03:44:22.895Z,98314.91
2022-09-29T03:49:26.327Z,98316.70
2022-09-29T03:54:29.720Z,98321.89
2022-09-29T03:59:33.030Z,98319.13
2022-09-29T04:04:36.548Z,98317.75
2022-09-29T04:09:39.861Z,98325.53
2022-09-29T04:14:43.473Z,98325.88
2022-09-29T04:19:46.787Z,98327.33
2022-09-29T04:24:51.224Z,98334.71
2022-09-29T04:29:54.738Z,98339.02
2022-09-29T04:34:58.266Z,98346.27
2022-09-29T04:40:03.455Z,98348.01
2022-09-29T04:45:07.332Z,98351.10
2022-09-29T04:50:10.644Z,98352.51
2022-09-29T04:55:14.368Z,98361.60
2022-09-29T05:00:18.581Z,98367.95
2022-09-29T05:05:22.318Z,98362.20
2022-09-29T05:10:26.856Z,98364.95
2022-09-29T05:15:30.071Z,98370.16
2022-09-29T05:20:40.441Z,98371.91
2022-09-29T05:25:46.518Z,98381.10
2022-09-29T05:30:49.932Z,98379.70
2022-09-29T05:35:53.246Z,98384.95
2022-09-29T05:40:56.610Z,98389.64
2022-09-29T05:46:02.445Z,98397.19
2022-09-29T05:51:12.597Z,98396.83
2022-09-29T05:56:22.008Z,98403.74
2022-09-29T06:01:26.666Z,98409.88
2022-09-29T06:06:30.615Z,98416.34
2022-09-29T06:11:34.349Z,98419.17
2022-09-29T06:16:37.829Z,98424.63
2022-09-29T06:21:41.471Z,98426.33
2022-09-29T06:26:46.457Z,98434.73
2022-09-29T06:31:50.906Z,98440.02
2022-09-29T06:37:13.218Z,98446.42
2022-09-29T06:42:16.524Z,98449.02
2022-09-29T06:47:19.834Z,98443.08
2022-09-29T06:52:25.460Z,98450.42
2022-09-29T06:57:32.601Z,98460.85
2022-09-29T07:02:36.282Z,98462.14
2022-09-29T07:07:39.633Z,98469.65
2022-09-29T07:12:47.101Z,98470.78
2022-09-29T07:17:53.420Z,98484.65
2022-09-29T07:22:56.732Z,98485.42
2022-09-29T07:28:00.145Z,98490.17
2022-09-29T07:33:04.103Z,98496.10
2022-09-29T07:38:07.384Z,98498.25
2022-09-29T07:43:10.691Z,98500.90
2022-09-29T07:48:14.014Z,98508.66
2022-09-29T07:53:17.314Z,98511.48
2022-09-29T07:58:20.726Z,98517.45
2022-09-29T08:03:26.087Z,98526.97
2022-09-29T08:08:29.704Z,98525.46
2022-09-29T08:13:33.996Z,98522.60
2022-09-29T08:18:37.348Z,98519.31
2022-09-29T08:23:43.139Z,98531.25
2022-09-29T08:28:58.932Z,98539.63
2022-09-29T08:34:05.407Z,98551.39
2022-09-29T08:39:10.909Z,98552.84
2022-09-29T08:44:38.780Z,98562.73
2022-09-29T08:50:51.901Z,98572.55
2022-09-29T08:56:04.842Z,98573.91
2022-09-29T09:01:29.488Z,98577.08
2022-09-29T09:06:41.773Z,98579.52
2022-09-29T09:12:05.257Z,98587.70
2022-09-29T09:17:33.652Z,98593.73
2022-09-29T09:22:55.191Z,98601.55
2022-09-29T09:28:04.751Z,98605.17
2022-09-29T09:33:30.316Z,98609.30
2022-09-29T09:38:55.000Z,98618.65
2022-09-29T09:44:06.291Z,98624.79
2022-09-29T09:49:24.249Z,98631.31
2022-09-29T09:54:52.031Z,98634.33
2022-09-29T10:00:16.250Z,98634.70
2022-09-29T10:05:26.813Z,98643.77
2022-09-29T10:10:31.762Z,98650.77
2022-09-29T10:15:45.722Z,98656.67
2022-09-29T10:20:49.441Z,98659.16
2022-09-29T10:26:17.021Z,98664.87
2022-09-29T10:31:27.293Z,98675.18
2022-09-29T10:36:34.506Z,98677.81
2022-09-29T10:41:54.913Z,98686.99
2022-09-29T10:46:58.837Z,98691.61
2022-09-29T10:52:24.060Z,98696.85
2022-09-29T10:57:31.134Z,98711.35
2022-09-29T11:02:39.100Z,98717.49
2022-09-29T11:07:49.004Z,98719.23
2022-09-29T11:12:52.763Z,98726.92
2022-09-29T11:17:57.306Z,98723.98
2022-09-29T11:23:06.656Z,98728.63
2022-09-29T11:28:38.335Z,98732.86
2022-09-29T11:34:00.086Z,98735.98
2022-09-29T11:39:36.356Z,98744.66
2022-09-29T11:44:58.721Z,98748.13
2022-09-29T11:50:15.443Z,98757.05
2022-09-29T11:55:49.277Z,98759.23
2022-09-29T12:01:15.515Z,98763.84
2022-09-29T12:06:34.804Z,98768.30
2022-09-29T12:12:28.830Z,98778.92
2022-09-29T12:17:38.322Z,98782.14
2022-09-29T12:22:46.534Z,98785.24
2022-09-29T12:27:50.916Z,98791.48
2022-09-29T12:33:19.421Z,98798.41
2022-09-29T12:38:36.456Z,98800.91
2022-09-29T12:43:46.215Z,98807.11
2022-09-29T12:49:04.987Z,98811.48
2022-09-29T12:54:36.870Z,98820.08
2022-09-29T13:00:06.289Z,98827.08
2022-09-29T13:05:20.046Z,98832.91
2022-09-29T13:11:04.730Z,98831.77
2022-09-29T13:16:11.101Z,98834.45
2022-09-29T13:21:40.021Z,98828.55
2022-09-29T13:27:01.564Z,98832.55
2022-09-29T13:32:05.178Z,98839.15
2022-09-29T13:37:20.542Z,98841.59
2022-09-29T13:42:29.103Z,98844.88
2022-09-29T13:47:34.471Z,98847.23
2022-09-29T13:52:41.157Z,98852.13
2022-09-29T13:57:52.205Z,98856.96
2022-09-29T14:03:05.206Z,98863.36
2022-09-29T14:08:08.500Z,98867.30
2022-09-29T14:13:14.976Z,98870.85
2022-09-29T14:18:41.916Z,98871.85
2022-09-29T14:23:46.228Z,98875.27
2022-09-29T14:28:53.581Z,98884.65
2022-09-29T14:33:57.917Z,98894.71
2022-09-29T14:39:25.576Z,98900.52
2022-09-29T14:44:49.084Z,98901.75
2022-09-29T14:50:17.276Z,98909.99
2022-09-29T14:55:39.223Z,98906.15
2022-09-29T15:00:43.189Z,98909.82
2022-09-29T15:05:46.869Z,98918.23
2022-09-29T15:10:54.077Z,98925.45
2022-09-29T15:16:18.067Z,98929.48
2022-09-29T15:21:39.915Z,98938.54
2022-09-29T15:26:46.788Z,98943.56
2022-09-29T15:31:50.323Z,98948.49
2022-09-29T15:36:56.573Z,98954.93
2022-09-29T15:42:02.335Z,98962.23
2022-09-29T15:47:05.582Z,98974.02
2022-09-29T15:52:15.445Z,98983.24
2022-09-29T15:57:58.287Z,98987.36
2022-09-29T16:03:11.219Z,98990.45
2022-09-29T16:08:23.338Z,98993.98
2022-09-29T16:13:31.459Z,98998.48
2022-09-29T16:18:45.215Z,99001.11
2022-09-29T16:24:31.129Z,99002.74
2022-09-29T16:29:36.623Z,99002.02
2022-09-29T16:34:39.909Z,99004.04
2022-09-29T16:39:46.355Z,99009.09
2022-09-29T16:44:53.490Z,99009.92
2022-09-29T16:50:03.746Z,99014.83
2022-09-29T16:55:20.162Z,99019.85
2022-09-29T17:00:27.455Z,99019.72
2022-09-29T17:05:35.310Z,99020.32
2022-09-29T17:10:40.685Z,99022.81
2022-09-29T17:15:46.676Z,99021.95
2022-09-29T17:20:52.189Z,99028.96
2022-09-29T17:26:15.882Z,99025.11
2022-09-29T17:31:19.758Z,99030.89
2022-09-29T17:36:24.443Z,99035.81
2022-09-29T17:41:28.470Z,99038.71
2022-09-29T17:46:32.130Z,99038.98
2022-09-29T17:51:35.706Z,99041.48
2022-09-29T17:56:44.240Z,99050.19
2022-09-29T18:01:50.288Z,99057.66
2022-09-29T18:06:54.037Z,99057.50
2022-09-29T18:11:58.899Z,99058.61
2022-09-29T18:17:06.022Z,99063.27
2022-09-29T18:22:09.396Z,99067.48
2022-09-29T18:27:15.072Z,99068.19
2022-09-29T18:32:19.821Z,99072.47
2022-09-29T18:37:23.222Z,99078.73
2022-09-29T18:42:28.098Z,99081.79
2022-09-29T18:47:31.378Z,99087.41
2022-09-29T18:52:42.573Z,99090.13
2022-09-29T18:57:47.624Z,99096.43
2022-09-29T19:02:51.718Z,99107.23
2022-09-29T19:07:58.678Z,99112.58
2022-09-29T19:13:04.771Z,99114.77
2022-09-29T19:18:08.959Z,99123.11
2022-09-29T19:23:12.574Z,99126.50
2022-09-29T19:28:17.652Z,99130.02
2022-09-29T19:33:22.782Z,99133.34
2022-09-29T19:38:26.193Z,99135.10
2022-09-29T19:43:29.570Z,99135.79
2022-09-29T19:48:32.919Z,99133.02
2022-09-29T19:53:36.133Z,99135.95
2022-09-29T19:58:41.997Z,99139.78
2022-09-29T20:03:48.284Z,99150.01
2022-09-29T20:08:51.793Z,99153.54
2022-09-29T20:13:55.103Z,99153.87
2022-09-29T20:18:58.829Z,99150.67
2022-09-29T20:24:02.236Z,99157.48
2022-09-29T20:29:05.959Z,99159.73
2022-09-29T20:34:11.415Z,99169.20
2022-09-29T20:39:21.931Z,99173.50
2022-09-29T20:44:26.526Z,99180.34
2022-09-29T20:49:29.749Z,99188.08
2022-09-29T20:54:33.366Z,99186.32
2022-09-29T20:59:36.884Z,99195.15
2022-09-29T21:04:40.397Z,99200.59
2022-09-29T21:09:43.759Z,99208.81
2022-09-29T21:14:47.223Z,99211.69
2022-09-29T21:19:50.634Z,99219.80
2022-09-29T21:24:53.948Z,99222.90
2022-09-29T21:29:57.256Z,99220.59
2022-09-29T21:35:01.592Z,99218.73
2022-09-29T21:40:05.209Z,99227.67
2022-09-29T21:45:10.580Z,99228.59
2022-09-29T21:50:14.132Z,99230.15
2022-09-29T21:55:17.703Z,99230.55
2022-09-29T22:00:21.318Z,99227.49
2022-09-29T22:05:24.630Z,99228.38
2022-09-29T22:10:28.351Z,99233.63
2022-09-29T22:15:33.508Z,99232.44
2022-09-29T22:20:38.577Z,99225.29
2022-09-29T22:25:46.167Z,99226.42
2022-09-29T22:30:49.990Z,99233.57
2022-09-29T22:35:57.507Z,99244.73
2022-09-29T22:41:00.916Z,99254.66
2022-09-29T22:46:04.809Z,99266.39
2022-09-29T22:51:09.173Z,99274.05
2022-09-29T22:56:17.035Z,99280.65
2022-09-29T23:01:22.287Z,99289.31
2022-09-29T23:06:25.996Z,99289.08
2022-09-29T23:11:31.632Z,99296.86
2022-09-29T23:16:35.029Z,99298.13
2022-09-29T23:21:38.561Z,99304.94
2022-09-29T23:26:41.973Z,99306.42
2022-09-29T23:31:49.444Z,99309.47
2022-09-29T23:36:53.612Z,99313.02
2022-09-29T23:41:56.929Z,99313.97
2022-09-29T23:47:00.407Z,99317.77
2022-09-29T23:52:04.876Z,99319.28
2022-09-29T23:57:08.390Z,99321.27
